sensor_id;sensor_type;location;lat;lon;timestamp;temperature;humidity
33831;DHT22;20137;48.834;8.732;2023-11-19T00:00:26;8.50;99.90
33831;DHT22;20137;48.834;8.732;2023-11-19T00:02:52;8.60;99.90
33831;DHT22;20137;48.834;8.732;2023-11-19T00:05:18;8.70;99.90
33831;DHT22;20137;48.834;8.732;2023-11-19T00:07:44;8.70;99.90
33831;DHT22;20137;48.834;8.732;2023-11-19T00:10:11;9.00;99.90
33831;DHT22;20137;48.834;8.732;2023-11-19T00:12:41;9.00;99.90
33831;DHT22;20137;48.834;8.732;2023-11-19T00:15:08;9.10;99.90
33831;DHT22;20137;48.834;8.732;2023-11-19T00:17:44;9.10;99.90
33831;DHT22;20137;48.834;8.732;2023-11-19T00:20:13;9.20;99.90
33831;DHT22;20137;48.834;8.732;2023-11-19T00:22:39;9.20;99.90
33831;DHT22;20137;48.834;8.732;2023-11-19T00:25:06;9.20;99.90
33831;DHT22;20137;48.834;8.732;2023-11-19T00:27:32;9.20;99.90
33831;DHT22;20137;48.834;8.732;2023-11-19T00:29:57;9.20;99.90
33831;DHT22;20137;48.834;8.732;2023-11-19T00:32:23;9.20;99.90
33831;DHT22;20137;48.834;8.732;2023-11-19T00:34:49;9.20;99.90
33831;DHT22;20137;48.834;8.732;2023-11-19T00:37:15;9.30;99.90
33831;DHT22;20137;48.834;8.732;2023-11-19T00:39:41;9.30;99.90
33831;DHT22;20137;48.834;8.732;2023-11-19T00:42:07;9.30;99.90
33831;DHT22;20137;48.834;8.732;2023-11-19T00:44:33;9.30;99.90
33831;DHT22;20137;48.834;8.732;2023-11-19T00:46:59;9.40;99.90
33831;DHT22;20137;48.834;8.732;2023-11-19T00:49:28;9.50;99.90
33831;DHT22;20137;48.834;8.732;2023-11-19T00:51:53;9.40;99.90
33831;DHT22;20137;48.834;8.732;2023-11-19T00:54:19;9.40;99.90
33831;DHT22;20137;48.834;8.732;2023-11-19T00:56:44;9.40;99.90
33831;DHT22;20137;48.834;8.732;2023-11-19T00:59:10;9.40;99.90
33831;DHT22;20137;48.834;8.732;2023-11-19T01:01:39;9.50;99.90
33831;DHT22;20137;48.834;8.732;2023-11-19T01:04:05;9.50;99.90
33831;DHT22;20137;48.834;8.732;2023-11-19T01:06:31;9.60;99.90
33831;DHT22;20137;48.834;8.732;2023-11-19T01:08:58;9.70;99.90
33831;DHT22;20137;48.834;8.732;2023-11-19T01:11:24;9.70;99.90
33831;DHT22;20137;48.834;8.732;2023-11-19T01:13:51;9.70;99.90
33831;DHT22;20137;48.834;8.732;2023-11-19T01:16:17;9.80;99.90
33831;DHT22;20137;48.834;8.732;2023-11-19T01:18:44;9.80;99.90
33831;DHT22;20137;48.834;8.732;2023-11-19T01:21:09;9.70;99.90
33831;DHT22;20137;48.834;8.732;2023-11-19T01:23:35;9.70;99.90
33831;DHT22;20137;48.834;8.732;2023-11-19T01:26:02;9.70;99.90
33831;DHT22;20137;48.834;8.732;2023-11-19T01:28:28;9.70;99.90
33831;DHT22;20137;48.834;8.732;2023-11-19T01:30:54;9.60;99.90
33831;DHT22;20137;48.834;8.732;2023-11-19T01:33:20;9.60;99.90
33831;DHT22;20137;48.834;8.732;2023-11-19T01:35:46;9.60;99.90
33831;DHT22;20137;48.834;8.732;2023-11-19T01:38:12;9.70;99.90
33831;DHT22;20137;48.834;8.732;2023-11-19T01:40:38;9.70;99.90
33831;DHT22;20137;48.834;8.732;2023-11-19T01:43:04;9.70;99.90
33831;DHT22;20137;48.834;8.732;2023-11-19T01:45:30;9.70;99.90
33831;DHT22;20137;48.834;8.732;2023-11-19T01:48:02;9.70;99.90
33831;DHT22;20137;48.834;8.732;2023-11-19T01:50:32;9.70;99.90
33831;DHT22;20137;48.834;8.732;2023-11-19T01:52:58;9.60;99.90
33831;DHT22;20137;48.834;8.732;2023-11-19T01:55:25;9.60;99.90
33831;DHT22;20137;48.834;8.732;2023-11-19T01:57:55;9.60;99.90
33831;DHT22;20137;48.834;8.732;2023-11-19T02:00:24;9.60;99.90
33831;DHT22;20137;48.834;8.732;2023-11-19T02:02:50;9.60;99.90
33831;DHT22;20137;48.834;8.732;2023-11-19T02:05:17;9.60;99.90
33831;DHT22;20137;48.834;8.732;2023-11-19T02:07:43;9.70;99.90
33831;DHT22;20137;48.834;8.732;2023-11-19T02:10:09;9.60;99.90
33831;DHT22;20137;48.834;8.732;2023-11-19T02:12:43;9.70;99.90
33831;DHT22;20137;48.834;8.732;2023-11-19T02:15:09;9.80;99.90
33831;DHT22;20137;48.834;8.732;2023-11-19T02:17:35;9.80;99.90
33831;DHT22;20137;48.834;8.732;2023-11-19T02:20:03;9.80;99.90
33831;DHT22;20137;48.834;8.732;2023-11-19T02:22:32;9.80;99.90
33831;DHT22;20137;48.834;8.732;2023-11-19T02:25:00;9.80;99.90
33831;DHT22;20137;48.834;8.732;2023-11-19T02:27:53;10.00;99.90
33831;DHT22;20137;48.834;8.732;2023-11-19T02:30:23;10.20;99.90
33831;DHT22;20137;48.834;8.732;2023-11-19T02:32:55;10.00;99.90
33831;DHT22;20137;48.834;8.732;2023-11-19T02:35:27;10.00;99.90
33831;DHT22;20137;48.834;8.732;2023-11-19T02:37:54;10.00;99.90
33831;DHT22;20137;48.834;8.732;2023-11-19T02:40:21;10.20;99.90
33831;DHT22;20137;48.834;8.732;2023-11-19T02:42:50;10.30;99.90
33831;DHT22;20137;48.834;8.732;2023-11-19T02:45:15;10.30;99.90
33831;DHT22;20137;48.834;8.732;2023-11-19T02:47:42;10.30;99.90
33831;DHT22;20137;48.834;8.732;2023-11-19T02:50:14;10.30;99.90
33831;DHT22;20137;48.834;8.732;2023-11-19T02:52:44;10.50;99.90
33831;DHT22;20137;48.834;8.732;2023-11-19T02:55:11;10.50;99.90
33831;DHT22;20137;48.834;8.732;2023-11-19T02:57:40;10.60;99.90
33831;DHT22;20137;48.834;8.732;2023-11-19T03:00:21;10.60;99.90
33831;DHT22;20137;48.834;8.732;2023-11-19T03:02:53;10.50;99.90
33831;DHT22;20137;48.834;8.732;2023-11-19T03:05:27;10.50;99.90
33831;DHT22;20137;48.834;8.732;2023-11-19T03:07:55;10.50;99.90
33831;DHT22;20137;48.834;8.732;2023-11-19T03:10:21;10.60;99.90
33831;DHT22;20137;48.834;8.732;2023-11-19T03:12:46;10.60;99.90
33831;DHT22;20137;48.834;8.732;2023-11-19T03:15:12;10.50;99.90
33831;DHT22;20137;48.834;8.732;2023-11-19T03:17:42;10.50;99.90
33831;DHT22;20137;48.834;8.732;2023-11-19T03:20:09;10.60;99.90
33831;DHT22;20137;48.834;8.732;2023-11-19T03:22:39;10.50;99.90
33831;DHT22;20137;48.834;8.732;2023-11-19T03:25:07;10.50;99.90
33831;DHT22;20137;48.834;8.732;2023-11-19T03:27:37;10.50;99.90
33831;DHT22;20137;48.834;8.732;2023-11-19T03:30:07;10.50;99.90
33831;DHT22;20137;48.834;8.732;2023-11-19T03:32:35;10.50;99.90
33831;DHT22;20137;48.834;8.732;2023-11-19T03:35:01;10.60;99.90
33831;DHT22;20137;48.834;8.732;2023-11-19T03:37:27;10.60;99.90
33831;DHT22;20137;48.834;8.732;2023-11-19T03:39:59;10.60;99.90
33831;DHT22;20137;48.834;8.732;2023-11-19T03:42:28;10.70;99.90
33831;DHT22;20137;48.834;8.732;2023-11-19T03:44:56;10.70;99.90
33831;DHT22;20137;48.834;8.732;2023-11-19T03:47:22;10.70;99.90
33831;DHT22;20137;48.834;8.732;2023-11-19T03:49:49;10.70;99.90
33831;DHT22;20137;48.834;8.732;2023-11-19T03:52:15;10.80;99.90
33831;DHT22;20137;48.834;8.732;2023-11-19T03:54:40;10.70;99.90
33831;DHT22;20137;48.834;8.732;2023-11-19T03:57:06;10.80;99.90
33831;DHT22;20137;48.834;8.732;2023-11-19T03:59:32;11.00;99.90
33831;DHT22;20137;48.834;8.732;2023-11-19T04:01:58;10.90;99.90
33831;DHT22;20137;48.834;8.732;2023-11-19T04:04:26;11.00;99.90
33831;DHT22;20137;48.834;8.732;2023-11-19T04:06:53;11.00;99.90
33831;DHT22;20137;48.834;8.732;2023-11-19T04:09:18;11.00;99.90
33831;DHT22;20137;48.834;8.732;2023-11-19T04:11:44;11.00;99.90
33831;DHT22;20137;48.834;8.732;2023-11-19T04:14:15;11.00;99.90
33831;DHT22;20137;48.834;8.732;2023-11-19T04:16:43;11.00;99.90
33831;DHT22;20137;48.834;8.732;2023-11-19T04:19:10;11.10;99.90
33831;DHT22;20137;48.834;8.732;2023-11-19T04:21:36;10.90;99.90
33831;DHT22;20137;48.834;8.732;2023-11-19T04:24:01;10.90;99.90
33831;DHT22;20137;48.834;8.732;2023-11-19T04:26:27;11.00;99.90
33831;DHT22;20137;48.834;8.732;2023-11-19T04:28:53;10.90;99.90
33831;DHT22;20137;48.834;8.732;2023-11-19T04:31:19;10.90;99.90
33831;DHT22;20137;48.834;8.732;2023-11-19T04:33:44;11.00;99.90
33831;DHT22;20137;48.834;8.732;2023-11-19T04:36:10;10.90;99.90
33831;DHT22;20137;48.834;8.732;2023-11-19T04:38:37;10.90;99.90
33831;DHT22;20137;48.834;8.732;2023-11-19T04:41:04;10.90;99.90
33831;DHT22;20137;48.834;8.732;2023-11-19T04:43:31;10.90;99.90
33831;DHT22;20137;48.834;8.732;2023-11-19T04:45:57;10.90;99.90
33831;DHT22;20137;48.834;8.732;2023-11-19T04:48:23;11.00;99.90
33831;DHT22;20137;48.834;8.732;2023-11-19T04:50:49;11.00;99.90
33831;DHT22;20137;48.834;8.732;2023-11-19T04:53:15;11.00;99.90
33831;DHT22;20137;48.834;8.732;2023-11-19T04:55:41;11.00;99.90
33831;DHT22;20137;48.834;8.732;2023-11-19T04:58:07;11.00;99.90
33831;DHT22;20137;48.834;8.732;2023-11-19T05:00:32;11.00;99.90
33831;DHT22;20137;48.834;8.732;2023-11-19T05:02:58;11.10;99.90
33831;DHT22;20137;48.834;8.732;2023-11-19T05:05:24;11.00;99.90
33831;DHT22;20137;48.834;8.732;2023-11-19T05:07:49;11.00;99.90
33831;DHT22;20137;48.834;8.732;2023-11-19T05:10:17;11.10;99.90
33831;DHT22;20137;48.834;8.732;2023-11-19T05:12:43;11.10;99.90
33831;DHT22;20137;48.834;8.732;2023-11-19T05:15:09;11.10;99.90
33831;DHT22;20137;48.834;8.732;2023-11-19T05:17:35;11.10;99.90
33831;DHT22;20137;48.834;8.732;2023-11-19T05:20:02;11.10;99.90
33831;DHT22;20137;48.834;8.732;2023-11-19T05:22:28;11.10;99.90
33831;DHT22;20137;48.834;8.732;2023-11-19T05:24:54;11.10;99.90
33831;DHT22;20137;48.834;8.732;2023-11-19T05:27:21;11.20;99.90
33831;DHT22;20137;48.834;8.732;2023-11-19T05:29:49;11.20;99.90
33831;DHT22;20137;48.834;8.732;2023-11-19T05:32:14;11.20;99.90
33831;DHT22;20137;48.834;8.732;2023-11-19T05:34:40;11.20;99.90
33831;DHT22;20137;48.834;8.732;2023-11-19T05:37:06;11.20;99.90
33831;DHT22;20137;48.834;8.732;2023-11-19T05:39:31;11.30;99.90
33831;DHT22;20137;48.834;8.732;2023-11-19T05:41:57;11.20;99.90
33831;DHT22;20137;48.834;8.732;2023-11-19T05:44:23;11.20;99.90
33831;DHT22;20137;48.834;8.732;2023-11-19T05:46:49;11.20;99.90
33831;DHT22;20137;48.834;8.732;2023-11-19T05:49:14;11.10;99.90
33831;DHT22;20137;48.834;8.732;2023-11-19T05:51:40;11.10;99.90
33831;DHT22;20137;48.834;8.732;2023-11-19T05:54:08;11.10;99.90
33831;DHT22;20137;48.834;8.732;2023-11-19T05:56:35;11.20;99.90
33831;DHT22;20137;48.834;8.732;2023-11-19T05:59:01;11.10;99.90
33831;DHT22;20137;48.834;8.732;2023-11-19T06:01:31;11.20;99.90
33831;DHT22;20137;48.834;8.732;2023-11-19T06:03:57;11.10;99.90
33831;DHT22;20137;48.834;8.732;2023-11-19T06:06:22;11.10;99.90
33831;DHT22;20137;48.834;8.732;2023-11-19T06:08:48;11.20;99.90
33831;DHT22;20137;48.834;8.732;2023-11-19T06:11:15;11.20;99.90
33831;DHT22;20137;48.834;8.732;2023-11-19T06:13:44;11.30;99.90
33831;DHT22;20137;48.834;8.732;2023-11-19T06:16:10;11.30;99.90
33831;DHT22;20137;48.834;8.732;2023-11-19T06:18:36;11.30;99.90
33831;DHT22;20137;48.834;8.732;2023-11-19T06:21:02;11.30;99.90
33831;DHT22;20137;48.834;8.732;2023-11-19T06:23:28;11.30;99.90
33831;DHT22;20137;48.834;8.732;2023-11-19T06:25:53;11.20;99.90
33831;DHT22;20137;48.834;8.732;2023-11-19T06:28:19;11.20;99.90
33831;DHT22;20137;48.834;8.732;2023-11-19T06:30:45;11.20;99.90
33831;DHT22;20137;48.834;8.732;2023-11-19T06:33:14;11.20;99.90
33831;DHT22;20137;48.834;8.732;2023-11-19T06:35:40;11.10;99.90
33831;DHT22;20137;48.834;8.732;2023-11-19T06:38:05;11.30;99.90
33831;DHT22;20137;48.834;8.732;2023-11-19T06:40:34;11.20;99.90
33831;DHT22;20137;48.834;8.732;2023-11-19T06:43:00;11.10;99.90
33831;DHT22;20137;48.834;8.732;2023-11-19T06:45:26;11.10;99.90
33831;DHT22;20137;48.834;8.732;2023-11-19T06:47:52;11.00;99.90
33831;DHT22;20137;48.834;8.732;2023-11-19T06:50:17;11.10;99.90
33831;DHT22;20137;48.834;8.732;2023-11-19T06:52:44;11.10;99.90
33831;DHT22;20137;48.834;8.732;2023-11-19T06:55:10;11.20;99.90
33831;DHT22;20137;48.834;8.732;2023-11-19T06:57:36;11.20;99.90
33831;DHT22;20137;48.834;8.732;2023-11-19T07:00:03;11.30;99.90
33831;DHT22;20137;48.834;8.732;2023-11-19T07:02:31;11.40;99.90
33831;DHT22;20137;48.834;8.732;2023-11-19T07:04:56;11.50;99.90
33831;DHT22;20137;48.834;8.732;2023-11-19T07:07:22;11.50;99.90
33831;DHT22;20137;48.834;8.732;2023-11-19T07:09:48;11.60;99.90
33831;DHT22;20137;48.834;8.732;2023-11-19T07:12:14;11.60;99.90
33831;DHT22;20137;48.834;8.732;2023-11-19T07:14:40;11.70;99.90
33831;DHT22;20137;48.834;8.732;2023-11-19T07:17:07;11.70;99.90
33831;DHT22;20137;48.834;8.732;2023-11-19T07:19:34;11.70;99.90
33831;DHT22;20137;48.834;8.732;2023-11-19T07:22:01;11.80;99.90
33831;DHT22;20137;48.834;8.732;2023-11-19T07:24:30;11.80;99.90
33831;DHT22;20137;48.834;8.732;2023-11-19T07:26:56;11.80;99.90
33831;DHT22;20137;48.834;8.732;2023-11-19T07:29:22;11.80;99.90
33831;DHT22;20137;48.834;8.732;2023-11-19T07:31:51;11.80;99.90
33831;DHT22;20137;48.834;8.732;2023-11-19T07:34:17;12.00;99.90
33831;DHT22;20137;48.834;8.732;2023-11-19T07:36:42;12.10;99.90
33831;DHT22;20137;48.834;8.732;2023-11-19T07:39:08;12.10;99.90
33831;DHT22;20137;48.834;8.732;2023-11-19T07:41:34;12.20;99.90
33831;DHT22;20137;48.834;8.732;2023-11-19T07:44:00;12.10;99.90
33831;DHT22;20137;48.834;8.732;2023-11-19T07:46:26;12.10;99.90
33831;DHT22;20137;48.834;8.732;2023-11-19T07:48:52;12.20;99.90
33831;DHT22;20137;48.834;8.732;2023-11-19T07:51:18;12.20;99.90
33831;DHT22;20137;48.834;8.732;2023-11-19T07:53:44;12.10;99.90
33831;DHT22;20137;48.834;8.732;2023-11-19T07:56:10;12.10;99.90
33831;DHT22;20137;48.834;8.732;2023-11-19T07:58:36;12.10;99.90
33831;DHT22;20137;48.834;8.732;2023-11-19T08:01:02;12.10;99.90
33831;DHT22;20137;48.834;8.732;2023-11-19T08:03:28;12.00;99.90
33831;DHT22;20137;48.834;8.732;2023-11-19T08:05:58;12.00;99.90
33831;DHT22;20137;48.834;8.732;2023-11-19T08:08:23;12.00;99.90
33831;DHT22;20137;48.834;8.732;2023-11-19T08:10:49;11.90;99.90
33831;DHT22;20137;48.834;8.732;2023-11-19T08:13:19;12.10;99.90
33831;DHT22;20137;48.834;8.732;2023-11-19T08:15:45;12.10;99.90
33831;DHT22;20137;48.834;8.732;2023-11-19T08:18:11;12.10;99.90
33831;DHT22;20137;48.834;8.732;2023-11-19T08:20:37;12.30;99.90
33831;DHT22;20137;48.834;8.732;2023-11-19T08:23:03;12.30;99.90
33831;DHT22;20137;48.834;8.732;2023-11-19T08:25:31;12.40;99.90
33831;DHT22;20137;48.834;8.732;2023-11-19T08:27:59;12.40;99.90
33831;DHT22;20137;48.834;8.732;2023-11-19T08:30:25;12.40;99.90
33831;DHT22;20137;48.834;8.732;2023-11-19T08:32:51;12.40;99.90
33831;DHT22;20137;48.834;8.732;2023-11-19T08:35:16;12.40;99.90
33831;DHT22;20137;48.834;8.732;2023-11-19T08:37:42;12.40;99.90
33831;DHT22;20137;48.834;8.732;2023-11-19T08:40:09;12.40;99.90
33831;DHT22;20137;48.834;8.732;2023-11-19T08:42:35;12.40;99.90
33831;DHT22;20137;48.834;8.732;2023-11-19T08:45:00;12.50;99.90
33831;DHT22;20137;48.834;8.732;2023-11-19T08:47:26;12.50;99.90
33831;DHT22;20137;48.834;8.732;2023-11-19T08:49:52;12.50;99.90
33831;DHT22;20137;48.834;8.732;2023-11-19T08:52:18;12.60;99.90
33831;DHT22;20137;48.834;8.732;2023-11-19T08:54:44;12.70;99.90
33831;DHT22;20137;48.834;8.732;2023-11-19T08:57:09;12.80;99.90
33831;DHT22;20137;48.834;8.732;2023-11-19T08:59:35;12.90;99.90
33831;DHT22;20137;48.834;8.732;2023-11-19T09:02:03;13.00;99.90
33831;DHT22;20137;48.834;8.732;2023-11-19T09:04:29;12.80;99.90
33831;DHT22;20137;48.834;8.732;2023-11-19T09:06:57;12.70;99.90
33831;DHT22;20137;48.834;8.732;2023-11-19T09:09:23;12.70;99.90
33831;DHT22;20137;48.834;8.732;2023-11-19T09:11:48;12.70;99.90
33831;DHT22;20137;48.834;8.732;2023-11-19T09:14:17;12.60;99.90
33831;DHT22;20137;48.834;8.732;2023-11-19T09:16:43;12.60;99.90
33831;DHT22;20137;48.834;8.732;2023-11-19T09:19:09;12.60;99.90
33831;DHT22;20137;48.834;8.732;2023-11-19T09:21:35;12.60;99.90
33831;DHT22;20137;48.834;8.732;2023-11-19T09:24:04;12.60;99.90
33831;DHT22;20137;48.834;8.732;2023-11-19T09:26:30;12.70;99.90
33831;DHT22;20137;48.834;8.732;2023-11-19T09:28:56;12.60;99.90
33831;DHT22;20137;48.834;8.732;2023-11-19T09:31:21;12.70;99.90
33831;DHT22;20137;48.834;8.732;2023-11-19T09:33:47;12.70;99.90
33831;DHT22;20137;48.834;8.732;2023-11-19T09:36:13;12.70;99.90
33831;DHT22;20137;48.834;8.732;2023-11-19T09:38:43;12.80;99.90
33831;DHT22;20137;48.834;8.732;2023-11-19T09:41:10;12.80;99.90
33831;DHT22;20137;48.834;8.732;2023-11-19T09:43:39;12.80;99.90
33831;DHT22;20137;48.834;8.732;2023-11-19T09:46:09;12.80;99.90
33831;DHT22;20137;48.834;8.732;2023-11-19T09:48:39;12.80;99.90
33831;DHT22;20137;48.834;8.732;2023-11-19T09:51:06;12.80;99.90
33831;DHT22;20137;48.834;8.732;2023-11-19T09:53:33;12.70;99.90
33831;DHT22;20137;48.834;8.732;2023-11-19T09:56:00;12.70;99.90
33831;DHT22;20137;48.834;8.732;2023-11-19T09:58:29;12.70;99.90
33831;DHT22;20137;48.834;8.732;2023-11-19T10:00:55;12.70;99.90
33831;DHT22;20137;48.834;8.732;2023-11-19T10:03:22;12.80;99.90
33831;DHT22;20137;48.834;8.732;2023-11-19T10:05:48;12.60;99.90
33831;DHT22;20137;48.834;8.732;2023-11-19T10:08:14;12.70;99.90
33831;DHT22;20137;48.834;8.732;2023-11-19T10:10:40;12.70;99.90
33831;DHT22;20137;48.834;8.732;2023-11-19T10:13:05;12.80;99.90
33831;DHT22;20137;48.834;8.732;2023-11-19T10:15:36;12.70;99.90
33831;DHT22;20137;48.834;8.732;2023-11-19T10:18:02;12.80;99.90
33831;DHT22;20137;48.834;8.732;2023-11-19T10:20:35;12.80;99.90
33831;DHT22;20137;48.834;8.732;2023-11-19T10:23:01;12.90;99.90
33831;DHT22;20137;48.834;8.732;2023-11-19T10:25:28;12.90;99.90
33831;DHT22;20137;48.834;8.732;2023-11-19T10:27:55;13.00;99.90
33831;DHT22;20137;48.834;8.732;2023-11-19T10:30:22;13.00;99.90
33831;DHT22;20137;48.834;8.732;2023-11-19T10:33:08;13.00;99.90
33831;DHT22;20137;48.834;8.732;2023-11-19T10:35:37;13.10;99.90
33831;DHT22;20137;48.834;8.732;2023-11-19T10:38:15;13.10;99.90
33831;DHT22;20137;48.834;8.732;2023-11-19T10:40:41;13.10;99.90
33831;DHT22;20137;48.834;8.732;2023-11-19T10:43:08;13.10;99.90
33831;DHT22;20137;48.834;8.732;2023-11-19T10:45:34;13.10;99.90
33831;DHT22;20137;48.834;8.732;2023-11-19T10:48:02;13.10;99.90
33831;DHT22;20137;48.834;8.732;2023-11-19T10:50:28;13.20;99.90
33831;DHT22;20137;48.834;8.732;2023-11-19T10:52:56;13.10;99.90
33831;DHT22;20137;48.834;8.732;2023-11-19T10:55:29;13.10;99.90
33831;DHT22;20137;48.834;8.732;2023-11-19T10:58:04;13.20;99.90
33831;DHT22;20137;48.834;8.732;2023-11-19T11:00:56;13.20;99.90
33831;DHT22;20137;48.834;8.732;2023-11-19T11:03:20;13.30;99.90
33831;DHT22;20137;48.834;8.732;2023-11-19T11:05:51;13.30;99.90
33831;DHT22;20137;48.834;8.732;2023-11-19T11:08:19;13.30;99.90
33831;DHT22;20137;48.834;8.732;2023-11-19T11:10:57;13.30;99.90
33831;DHT22;20137;48.834;8.732;2023-11-19T11:13:24;13.40;99.90
33831;DHT22;20137;48.834;8.732;2023-11-19T11:15:51;13.40;99.90
33831;DHT22;20137;48.834;8.732;2023-11-19T11:18:17;13.40;99.90
33831;DHT22;20137;48.834;8.732;2023-11-19T11:20:44;13.40;99.90
33831;DHT22;20137;48.834;8.732;2023-11-19T11:29:29;13.20;99.90
33831;DHT22;20137;48.834;8.732;2023-11-19T11:32:35;13.20;99.90
33831;DHT22;20137;48.834;8.732;2023-11-19T11:37:59;13.20;99.90
33831;DHT22;20137;48.834;8.732;2023-11-19T11:40:26;13.30;99.90
33831;DHT22;20137;48.834;8.732;2023-11-19T11:42:52;13.40;99.90
33831;DHT22;20137;48.834;8.732;2023-11-19T11:45:18;13.40;99.90
33831;DHT22;20137;48.834;8.732;2023-11-19T11:50:20;13.40;99.90
33831;DHT22;20137;48.834;8.732;2023-11-19T11:55:34;13.30;99.90
33831;DHT22;20137;48.834;8.732;2023-11-19T11:58:02;13.40;99.90
33831;DHT22;20137;48.834;8.732;2023-11-19T12:00:30;13.40;99.90
33831;DHT22;20137;48.834;8.732;2023-11-19T12:02:57;13.30;99.90
33831;DHT22;20137;48.834;8.732;2023-11-19T12:05:24;13.30;99.90
33831;DHT22;20137;48.834;8.732;2023-11-19T12:08:04;13.40;99.90
33831;DHT22;20137;48.834;8.732;2023-11-19T12:10:36;13.40;99.90
33831;DHT22;20137;48.834;8.732;2023-11-19T12:13:06;13.30;99.90
33831;DHT22;20137;48.834;8.732;2023-11-19T12:18:24;13.50;99.90
33831;DHT22;20137;48.834;8.732;2023-11-19T12:20:50;13.50;99.90
33831;DHT22;20137;48.834;8.732;2023-11-19T12:23:15;13.40;99.90
33831;DHT22;20137;48.834;8.732;2023-11-19T12:25:41;13.30;99.90
33831;DHT22;20137;48.834;8.732;2023-11-19T12:28:12;13.40;99.90
33831;DHT22;20137;48.834;8.732;2023-11-19T12:30:38;13.40;99.90
33831;DHT22;20137;48.834;8.732;2023-11-19T12:33:08;13.40;99.90
33831;DHT22;20137;48.834;8.732;2023-11-19T12:35:39;13.50;99.90
33831;DHT22;20137;48.834;8.732;2023-11-19T12:38:05;13.50;99.90
33831;DHT22;20137;48.834;8.732;2023-11-19T12:40:31;13.40;99.90
33831;DHT22;20137;48.834;8.732;2023-11-19T12:42:57;13.50;99.90
33831;DHT22;20137;48.834;8.732;2023-11-19T12:45:24;13.70;99.90
33831;DHT22;20137;48.834;8.732;2023-11-19T12:47:50;13.80;99.90
33831;DHT22;20137;48.834;8.732;2023-11-19T12:50:18;13.80;99.90
33831;DHT22;20137;48.834;8.732;2023-11-19T12:52:58;13.70;99.90
33831;DHT22;20137;48.834;8.732;2023-11-19T12:55:25;13.70;99.90
33831;DHT22;20137;48.834;8.732;2023-11-19T12:57:54;13.70;99.90
33831;DHT22;20137;48.834;8.732;2023-11-19T13:00:25;13.70;99.90
33831;DHT22;20137;48.834;8.732;2023-11-19T13:02:55;13.60;99.90
33831;DHT22;20137;48.834;8.732;2023-11-19T13:05:33;13.50;99.90
33831;DHT22;20137;48.834;8.732;2023-11-19T13:08:02;13.50;99.90
33831;DHT22;20137;48.834;8.732;2023-11-19T13:10:30;13.50;99.90
33831;DHT22;20137;48.834;8.732;2023-11-19T13:13:14;13.40;99.90
33831;DHT22;20137;48.834;8.732;2023-11-19T13:15:40;13.40;99.90
33831;DHT22;20137;48.834;8.732;2023-11-19T13:18:06;13.40;99.90
33831;DHT22;20137;48.834;8.732;2023-11-19T13:20:32;13.40;99.90
33831;DHT22;20137;48.834;8.732;2023-11-19T13:23:01;13.40;99.90
33831;DHT22;20137;48.834;8.732;2023-11-19T13:25:27;13.40;99.90
33831;DHT22;20137;48.834;8.732;2023-11-19T13:27:54;13.40;99.90
33831;DHT22;20137;48.834;8.732;2023-11-19T13:30:20;13.40;99.90
33831;DHT22;20137;48.834;8.732;2023-11-19T13:32:48;13.40;99.90
33831;DHT22;20137;48.834;8.732;2023-11-19T13:35:13;13.30;99.90
33831;DHT22;20137;48.834;8.732;2023-11-19T13:37:40;13.30;99.90
33831;DHT22;20137;48.834;8.732;2023-11-19T13:40:09;13.20;99.90
33831;DHT22;20137;48.834;8.732;2023-11-19T13:42:36;13.10;99.90
33831;DHT22;20137;48.834;8.732;2023-11-19T13:45:09;13.00;99.90
33831;DHT22;20137;48.834;8.732;2023-11-19T13:47:43;13.00;99.90
33831;DHT22;20137;48.834;8.732;2023-11-19T13:50:13;13.00;99.90
33831;DHT22;20137;48.834;8.732;2023-11-19T13:52:41;12.90;99.90
33831;DHT22;20137;48.834;8.732;2023-11-19T13:55:09;12.80;99.90
33831;DHT22;20137;48.834;8.732;2023-11-19T13:57:35;12.90;99.90
33831;DHT22;20137;48.834;8.732;2023-11-19T14:00:05;12.90;99.90
33831;DHT22;20137;48.834;8.732;2023-11-19T14:02:49;12.80;99.90
33831;DHT22;20137;48.834;8.732;2023-11-19T14:05:15;12.80;99.90
33831;DHT22;20137;48.834;8.732;2023-11-19T14:07:44;12.80;99.90
33831;DHT22;20137;48.834;8.732;2023-11-19T14:10:13;12.90;99.90
33831;DHT22;20137;48.834;8.732;2023-11-19T14:12:40;12.80;99.90
33831;DHT22;20137;48.834;8.732;2023-11-19T14:15:07;12.80;99.90
33831;DHT22;20137;48.834;8.732;2023-11-19T14:17:35;12.80;99.90
33831;DHT22;20137;48.834;8.732;2023-11-19T14:20:04;12.80;99.90
33831;DHT22;20137;48.834;8.732;2023-11-19T14:22:41;12.80;99.90
33831;DHT22;20137;48.834;8.732;2023-11-19T14:25:11;12.70;99.90
33831;DHT22;20137;48.834;8.732;2023-11-19T14:27:41;12.70;99.90
33831;DHT22;20137;48.834;8.732;2023-11-19T14:30:08;12.70;99.90
33831;DHT22;20137;48.834;8.732;2023-11-19T14:32:38;12.60;99.90
33831;DHT22;20137;48.834;8.732;2023-11-19T14:35:05;12.60;99.90
33831;DHT22;20137;48.834;8.732;2023-11-19T14:37:31;12.60;99.90
33831;DHT22;20137;48.834;8.732;2023-11-19T14:39:57;12.60;99.90
33831;DHT22;20137;48.834;8.732;2023-11-19T14:42:23;12.60;99.90
33831;DHT22;20137;48.834;8.732;2023-11-19T14:44:53;12.40;99.90
33831;DHT22;20137;48.834;8.732;2023-11-19T14:47:20;12.40;99.90
33831;DHT22;20137;48.834;8.732;2023-11-19T14:49:45;12.40;99.90
33831;DHT22;20137;48.834;8.732;2023-11-19T14:52:11;12.30;99.90
33831;DHT22;20137;48.834;8.732;2023-11-19T14:54:37;12.30;99.90
33831;DHT22;20137;48.834;8.732;2023-11-19T14:57:06;12.30;99.90
33831;DHT22;20137;48.834;8.732;2023-11-19T14:59:34;12.20;99.90
33831;DHT22;20137;48.834;8.732;2023-11-19T15:02:00;12.20;99.90
33831;DHT22;20137;48.834;8.732;2023-11-19T15:04:26;12.10;99.90
33831;DHT22;20137;48.834;8.732;2023-11-19T15:06:53;12.20;99.90
33831;DHT22;20137;48.834;8.732;2023-11-19T15:09:19;12.00;99.90
33831;DHT22;20137;48.834;8.732;2023-11-19T15:11:46;12.00;99.90
33831;DHT22;20137;48.834;8.732;2023-11-19T15:14:15;11.90;99.90
33831;DHT22;20137;48.834;8.732;2023-11-19T15:16:45;11.90;99.90
33831;DHT22;20137;48.834;8.732;2023-11-19T15:19:11;11.90;99.90
33831;DHT22;20137;48.834;8.732;2023-11-19T15:21:38;11.80;99.90
33831;DHT22;20137;48.834;8.732;2023-11-19T15:24:04;11.80;99.90
33831;DHT22;20137;48.834;8.732;2023-11-19T15:26:34;11.70;99.90
33831;DHT22;20137;48.834;8.732;2023-11-19T15:29:00;11.80;99.90
33831;DHT22;20137;48.834;8.732;2023-11-19T15:31:26;11.60;99.90
33831;DHT22;20137;48.834;8.732;2023-11-19T15:33:52;11.60;99.90
33831;DHT22;20137;48.834;8.732;2023-11-19T15:36:18;11.50;99.90
33831;DHT22;20137;48.834;8.732;2023-11-19T15:38:44;11.60;99.90
33831;DHT22;20137;48.834;8.732;2023-11-19T15:41:10;11.50;99.90
33831;DHT22;20137;48.834;8.732;2023-11-19T15:43:35;11.40;99.90
33831;DHT22;20137;48.834;8.732;2023-11-19T15:46:05;11.30;99.90
33831;DHT22;20137;48.834;8.732;2023-11-19T15:48:30;11.30;99.90
33831;DHT22;20137;48.834;8.732;2023-11-19T15:50:56;11.40;99.90